Terminal Aerodrome Forecast
Issued by NWS

Home | Current Version | Previous Version | Text Only | Print | Product List | Glossary On
Versions: 1 2 3 4 5 6 7 8 9 10 11 12 13 14 15 16 17 18 19 20 21 22
000
FTUS41 KBUF 010541
TAFIAG
TAF
KIAG 010541Z 0106/0206 09007KT 6SM -RA OVC035
     FM011200 07010KT P6SM OVC020
     FM011900 03006KT P6SM BKN020
     FM020200 03007KT P6SM BKN040
     FM020500 03005KT P6SM -SHRA BKN200=

USA.gov is the U.S. government's official web portal to all federal, state and local government web resources and services.